Time;durP1;ratioP1;P1;durP2;ratioP2;P2;SDS_P1;SDS_P2;PMS_P1;PMS_P2;Temp;Humidity;BMP_temperature;BMP_pressure;BME280_temperature;BME280_humidity;BME280_pressure;Samples;Min_cycle;Max_cycle;Signal;HPM_P1;HPM_P2
2022/12/31 00:00:24;;;;;;;;;;;;;;;;;;4680317;28;20292;-66
2022/12/31 00:02:50;;;;;;;;;;;;;;;;;;4681815;28;20278;-66
2022/12/31 00:05:16;;;;;;;;;;;;;;;;;;4682051;28;20369;-66
2022/12/31 00:07:42;;;;;;;;;;;;;;;;;;4682787;28;20231;-67
2022/12/31 00:10:08;;;;;;;;;;;;;;;;;;4677606;28;20754;-66
2022/12/31 00:12:34;;;;;;;;;;;;;;;;;;4684693;28;20263;-67
2022/12/31 00:15:00;;;;;;;;;;;;;;;;;;4685400;28;20267;-66
2022/12/31 00:17:26;;;;;;;;;;;;;;;;;;4686433;28;20317;-66
2022/12/31 00:19:51;;;;;;;;;;;;;;;;;;4686523;28;20313;-66
2022/12/31 00:22:17;;;;;;;;;;;;;;;;;;4684970;28;20264;-66
2022/12/31 00:24:43;;;;;;;;;;;;;;;;;;4686548;28;20225;-66
2022/12/31 00:27:09;;;;;;;;;;;;;;;;;;4687300;28;20284;-66
2022/12/31 00:29:35;;;;;;;;;;;;;;;;;;4687570;28;20586;-66
2022/12/31 00:32:01;;;;;;;;;;;;;;;;;;4690678;28;20294;-66
2022/12/31 00:34:27;;;;;;;;;;;;;;;;;;4688252;28;20690;-66
2022/12/31 00:36:53;;;;;;;;;;;;;;;;;;4688438;28;20266;-66
2022/12/31 00:39:19;;;;;;;;;;;;;;;;;;4689700;28;20289;-66
2022/12/31 00:41:44;;;;;;;;;;;;;;;;;;4688759;28;20714;-67
2022/12/31 00:44:10;;;;;;;;;;;;;;;;;;4689478;28;20379;-67
2022/12/31 00:46:36;;;;;;;;;;;;;;;;;;4690072;28;20689;-66
2022/12/31 00:49:02;;;;;;;;;;;;;;;;;;4686959;28;20271;-66
2022/12/31 00:51:28;;;;;;;;;;;;;;;;;;4683103;28;20281;-67
2022/12/31 00:53:54;;;;;;;;;;;;;;;;;;4681787;28;20854;-66
2022/12/31 00:56:20;;;;;;;;;;;;;;;;;;4682687;28;20824;-67
2022/12/31 00:58:46;;;;;;;;;;;;;;;;;;4681308;28;20232;-67
2022/12/31 01:01:11;;;;;;;;;;;;;;;;;;4681497;28;20285;-67
2022/12/31 01:03:37;;;;;;;;;;;;;;;;;;4680830;28;20384;-67
2022/12/31 01:06:03;;;;;;;;;;;;;;;;;;4680205;28;20273;-67
2022/12/31 01:08:29;;;;;;;;;;;;;;;;;;4678939;28;20235;-67
2022/12/31 01:13:40;;;;;;;;;;;;;;;;;;4680576;28;20981;-67
2022/12/31 01:16:06;;;;;;;;;;;;;;;;;;4681589;28;20267;-66
2022/12/31 01:18:32;;;;;;;;;;;;;;;;;;4682673;28;20279;-66
2022/12/31 01:20:57;;;;;;;;;;;;;;;;;;4680447;28;20324;-66
2022/12/31 01:23:23;;;;;;;;;;;;;;;;;;4680966;28;20813;-66
2022/12/31 01:25:49;;;;;;;;;;;;;;;;;;4680685;28;20319;-66
2022/12/31 01:28:15;;;;;;;;;;;;;;;;;;4680994;28;20236;-66
2022/12/31 01:30:41;;;;;;;;;;;;;;;;;;4680307;28;20287;-66
2022/12/31 01:33:07;;;;;;;;;;;;;;;;;;4680807;28;20268;-67
2022/12/31 01:35:33;;;;;;;;;;;;;;;;;;4679152;28;20388;-66
2022/12/31 01:37:59;;;;;;;;;;;;;;;;;;4679694;28;20251;-66
2022/12/31 01:40:25;;;;;;;;;;;;;;;;;;4679456;28;20791;-66
2022/12/31 01:42:50;;;;;;;;;;;;;;;;;;4679130;28;20266;-66
2022/12/31 01:45:16;;;;;;;;;;;;;;;;;;4678743;28;20254;-66
2022/12/31 01:47:42;;;;;;;;;;;;;;;;;;4679801;28;20260;-66
2022/12/31 01:50:08;;;;;;;;;;;;;;;;;;4679786;28;20231;-66
2022/12/31 01:52:34;;;;;;;;;;;;;;;;;;4679052;28;20324;-66
2022/12/31 01:55:00;;;;;;;;;;;;;;;;;;4679286;28;20227;-66
2022/12/31 01:57:26;;;;;;;;;;;;;;;;;;4676135;28;20237;-65
2022/12/31 01:59:52;;;;;;;;;;;;;;;;;;4677445;28;20646;-66
2022/12/31 02:02:17;;;;;;;;;;;;;;;;;;4679190;28;20289;-65
2022/12/31 02:04:43;;;;;;;;;;;;;;;;;;4678565;28;21121;-66
2022/12/31 02:07:09;;;;;;;;;;;;;;;;;;4678732;28;20289;-67
2022/12/31 02:09:35;;;;;;;;;;;;;;;;;;4678924;28;20317;-66
2022/12/31 02:12:01;;;;;;;;;;;;;;;;;;4678895;28;20825;-64
2022/12/31 02:14:27;;;;;;;;;;;;;;;;;;4678652;28;20829;-67
2022/12/31 02:16:53;;;;;;;;;;;;;;;;;;4678860;28;20320;-66
2022/12/31 02:19:19;;;;;;;;;;;;;;;;;;4678579;28;20288;-66
2022/12/31 02:21:45;;;;;;;;;;;;;;;;;;4676798;28;20307;-66
2022/12/31 02:24:10;;;;;;;;;;;;;;;;;;4678094;28;20262;-66
2022/12/31 02:26:36;;;;;;;;;;;;;;;;;;4678020;28;20238;-66
2022/12/31 02:29:02;;;;;;;;;;;;;;;;;;4678288;28;20262;-66
2022/12/31 02:31:28;;;;;;;;;;;;;;;;;;4678267;28;20260;-66
2022/12/31 02:33:54;;;;;;;;;;;;;;;;;;4677286;28;20728;-66
2022/12/31 02:36:20;;;;;;;;;;;;;;;;;;4678279;28;20224;-66
2022/12/31 02:38:46;;;;;;;;;;;;;;;;;;4678359;28;20260;-67
2022/12/31 02:41:48;;;;;;;;;;;;;;;;;;4674217;28;20236;-67
2022/12/31 02:43:57;;;;;;;;;;;;;;;;;;4682114;28;20225;-66
2022/12/31 02:46:23;;;;;;;;;;;;;;;;;;4681997;28;20308;-66
2022/12/31 02:48:49;;;;;;;;;;;;;;;;;;4681381;28;20384;-66
2022/12/31 02:51:15;;;;;;;;;;;;;;;;;;4682242;28;20417;-66
2022/12/31 02:53:41;;;;;;;;;;;;;;;;;;4681504;28;20607;-67
2022/12/31 02:56:07;;;;;;;;;;;;;;;;;;4681294;28;20293;-66
2022/12/31 03:04:30;;;;;;;;;;;;;;;;;;4679305;28;20338;-66
2022/12/31 03:06:48;;;;;;;;;;;;;;;;;;4678918;28;20237;-65
2022/12/31 03:09:14;;;;;;;;;;;;;;;;;;4679357;28;20275;-67
2022/12/31 03:14:25;;;;;;;;;;;;;;;;;;4675530;28;20325;-66
2022/12/31 03:16:51;;;;;;;;;;;;;;;;;;4678174;28;20289;-66
2022/12/31 03:27:31;;;;;;;;;;;;;;;;;;4679986;28;20383;-66
2022/12/31 03:29:57;;;;;;;;;;;;;;;;;;4678634;28;20253;-67
2022/12/31 03:32:22;;;;;;;;;;;;;;;;;;4678643;28;20232;-66
2022/12/31 03:34:48;;;;;;;;;;;;;;;;;;4678123;28;20730;-66
2022/12/31 03:37:14;;;;;;;;;;;;;;;;;;4678595;28;20272;-66
2022/12/31 03:39:40;;;;;;;;;;;;;;;;;;4679412;28;20273;-66
2022/12/31 03:42:06;;;;;;;;;;;;;;;;;;4681863;28;20369;-66
2022/12/31 03:44:32;;;;;;;;;;;;;;;;;;4679494;28;20298;-67
2022/12/31 03:46:58;;;;;;;;;;;;;;;;;;4679549;28;20232;-66
2022/12/31 03:49:24;;;;;;;;;;;;;;;;;;4679372;28;20667;-67
2022/12/31 03:51:50;;;;;;;;;;;;;;;;;;4678547;28;20279;-67
2022/12/31 03:54:15;;;;;;;;;;;;;;;;;;4678593;28;20712;-67
2022/12/31 03:56:41;;;;;;;;;;;;;;;;;;4679102;28;20291;-66
2022/12/31 03:59:07;;;;;;;;;;;;;;;;;;4678291;28;20766;-66
2022/12/31 04:01:33;;;;;;;;;;;;;;;;;;4677892;28;20270;-66
2022/12/31 04:03:59;;;;;;;;;;;;;;;;;;4676196;28;20613;-66
2022/12/31 04:06:25;;;;;;;;;;;;;;;;;;4677117;28;20274;-66
2022/12/31 04:08:51;;;;;;;;;;;;;;;;;;4677761;28;21000;-67
2022/12/31 04:11:17;;;;;;;;;;;;;;;;;;4677939;28;20237;-67
2022/12/31 04:13:42;;;;;;;;;;;;;;;;;;4677199;28;20259;-67
2022/12/31 04:16:08;;;;;;;;;;;;;;;;;;4677123;28;20280;-67
2022/12/31 04:18:34;;;;;;;;;;;;;;;;;;4676692;28;20242;-67
2022/12/31 04:21:00;;;;;;;;;;;;;;;;;;4676415;28;20285;-66
2022/12/31 04:23:26;;;;;;;;;;;;;;;;;;4676449;28;20265;-67
2022/12/31 04:25:52;;;;;;;;;;;;;;;;;;4676320;28;20250;-66
2022/12/31 04:28:18;;;;;;;;;;;;;;;;;;4676301;28;20304;-66
2022/12/31 04:30:44;;;;;;;;;;;;;;;;;;4675965;28;20345;-67
2022/12/31 04:33:09;;;;;;;;;;;;;;;;;;4676594;28;20276;-67
2022/12/31 04:35:35;;;;;;;;;;;;;;;;;;4676715;28;20307;-67
2022/12/31 04:38:01;;;;;;;;;;;;;;;;;;4676806;28;20234;-67
2022/12/31 04:40:27;;;;;;;;;;;;;;;;;;4675295;28;20265;-66
2022/12/31 04:42:53;;;;;;;;;;;;;;;;;;4676296;28;20289;-66
2022/12/31 04:45:19;;;;;;;;;;;;;;;;;;4675765;28;20682;-66
2022/12/31 04:47:45;;;;;;;;;;;;;;;;;;4675915;28;20239;-67
2022/12/31 04:50:11;;;;;;;;;;;;;;;;;;4676473;28;20785;-66
2022/12/31 04:52:36;;;;;;;;;;;;;;;;;;4676789;28;20274;-66
2022/12/31 04:55:02;;;;;;;;;;;;;;;;;;4675312;28;20374;-67
2022/12/31 04:57:28;;;;;;;;;;;;;;;;;;4675663;28;20289;-66
2022/12/31 04:59:54;;;;;;;;;;;;;;;;;;4675634;28;20320;-66
2022/12/31 05:02:20;;;;;;;;;;;;;;;;;;4675747;28;20876;-67
2022/12/31 05:04:46;;;;;;;;;;;;;;;;;;4676639;28;20278;-66
2022/12/31 05:07:12;;;;;;;;;;;;;;;;;;4675786;28;20291;-66
2022/12/31 05:09:38;;;;;;;;;;;;;;;;;;4675803;28;20281;-67
2022/12/31 05:12:03;;;;;;;;;;;;;;;;;;4674914;28;20268;-66
2022/12/31 05:14:29;;;;;;;;;;;;;;;;;;4676528;28;20536;-66
2022/12/31 05:16:57;;;;;;;;;;;;;;;;;;4675036;28;20265;-66
2022/12/31 05:19:22;;;;;;;;;;;;;;;;;;4673881;28;20312;-66
2022/12/31 05:22:27;;;;;;;;;;;;;;;;;;4674290;28;20254;-67
2022/12/31 05:24:34;;;;;;;;;;;;;;;;;;4675531;28;20295;-66
2022/12/31 05:27:00;;;;;;;;;;;;;;;;;;4673792;28;20307;-66
2022/12/31 05:29:26;;;;;;;;;;;;;;;;;;4675083;28;20240;-66
2022/12/31 05:31:52;;;;;;;;;;;;;;;;;;4676276;28;20281;-66
2022/12/31 05:34:18;;;;;;;;;;;;;;;;;;4674578;28;20348;-66
2022/12/31 05:36:44;;;;;;;;;;;;;;;;;;4673955;28;20265;-66
2022/12/31 05:39:09;;;;;;;;;;;;;;;;;;4675225;28;20333;-66
2022/12/31 05:41:35;;;;;;;;;;;;;;;;;;4674620;28;20340;-66
2022/12/31 05:44:01;;;;;;;;;;;;;;;;;;4674210;28;20278;-66
2022/12/31 05:46:27;;;;;;;;;;;;;;;;;;4673888;28;20284;-64
2022/12/31 05:48:53;;;;;;;;;;;;;;;;;;4673063;28;20235;-66
2022/12/31 05:51:19;;;;;;;;;;;;;;;;;;4670461;28;20316;-66
2022/12/31 05:53:45;;;;;;;;;;;;;;;;;;4673171;28;20236;-66
2022/12/31 05:56:11;;;;;;;;;;;;;;;;;;4673008;28;20239;-66
2022/12/31 05:58:36;;;;;;;;;;;;;;;;;;4673206;28;20301;-66
2022/12/31 06:01:02;;;;;;;;;;;;;;;;;;4671687;28;20292;-66
2022/12/31 06:03:28;;;;;;;;;;;;;;;;;;4670833;28;20246;-66
2022/12/31 06:05:54;;;;;;;;;;;;;;;;;;4673790;28;20286;-65
2022/12/31 06:08:20;;;;;;;;;;;;;;;;;;4667691;28;20799;-67
2022/12/31 06:10:46;;;;;;;;;;;;;;;;;;4672561;28;20301;-66
2022/12/31 06:13:12;;;;;;;;;;;;;;;;;;4671304;28;20298;-66
2022/12/31 06:15:38;;;;;;;;;;;;;;;;;;4669983;28;20387;-66
2022/12/31 06:18:04;;;;;;;;;;;;;;;;;;4666005;28;20307;-65
2022/12/31 06:20:30;;;;;;;;;;;;;;;;;;4670839;28;20619;-66
2022/12/31 06:22:56;;;;;;;;;;;;;;;;;;4669711;28;20288;-67
2022/12/31 06:25:22;;;;;;;;;;;;;;;;;;4669269;28;20325;-66
2022/12/31 06:27:48;;;;;;;;;;;;;;;;;;4669556;28;20298;-66
2022/12/31 06:30:14;;;;;;;;;;;;;;;;;;4670077;28;20271;-67
2022/12/31 06:32:39;;;;;;;;;;;;;;;;;;4669545;28;21153;-65
2022/12/31 06:35:05;;;;;;;;;;;;;;;;;;4669658;28;20390;-66
2022/12/31 06:37:31;;;;;;;;;;;;;;;;;;4668951;28;20398;-66
2022/12/31 06:39:57;;;;;;;;;;;;;;;;;;4667410;28;20376;-66
2022/12/31 06:42:23;;;;;;;;;;;;;;;;;;4667998;28;21153;-66
2022/12/31 06:44:49;;;;;;;;;;;;;;;;;;4669454;28;20262;-66
2022/12/31 06:47:15;;;;;;;;;;;;;;;;;;4668244;28;20726;-66
2022/12/31 06:49:41;;;;;;;;;;;;;;;;;;4670699;28;20284;-66
2022/12/31 06:52:07;;;;;;;;;;;;;;;;;;4671318;28;20803;-66
2022/12/31 06:54:33;;;;;;;;;;;;;;;;;;4670467;28;20289;-65
2022/12/31 06:56:58;;;;;;;;;;;;;;;;;;4670725;28;20228;-67
2022/12/31 06:59:24;;;;;;;;;;;;;;;;;;4670366;28;20311;-67
2022/12/31 07:01:50;;;;;;;;;;;;;;;;;;4671291;28;20286;-67
2022/12/31 07:04:16;;;;;;;;;;;;;;;;;;4670223;28;20720;-66
2022/12/31 07:06:43;;;;;;;;;;;;;;;;;;4670481;28;20346;-65
2022/12/31 07:09:08;;;;;;;;;;;;;;;;;;4669940;28;20264;-65
2022/12/31 07:11:34;;;;;;;;;;;;;;;;;;4671597;28;20287;-66
2022/12/31 07:14:00;;;;;;;;;;;;;;;;;;4677245;28;20324;-60
2022/12/31 07:16:26;;;;;;;;;;;;;;;;;;4673252;28;20327;-60
2022/12/31 07:18:52;;;;;;;;;;;;;;;;;;4678283;28;20870;-59
2022/12/31 07:21:18;;;;;;;;;;;;;;;;;;4679009;28;20321;-59
2022/12/31 07:23:44;;;;;;;;;;;;;;;;;;4679510;28;20861;-60
2022/12/31 07:26:10;;;;;;;;;;;;;;;;;;4678601;28;20266;-59
2022/12/31 07:28:36;;;;;;;;;;;;;;;;;;4680959;28;20260;-60
2022/12/31 07:31:01;;;;;;;;;;;;;;;;;;4682719;28;20407;-60
2022/12/31 07:33:27;;;;;;;;;;;;;;;;;;4684205;28;20240;-59
2022/12/31 07:35:53;;;;;;;;;;;;;;;;;;4683865;28;20294;-60
2022/12/31 07:38:19;;;;;;;;;;;;;;;;;;4682957;28;20269;-60
2022/12/31 07:40:45;;;;;;;;;;;;;;;;;;4681390;28;20665;-59
2022/12/31 07:43:11;;;;;;;;;;;;;;;;;;4683097;28;20262;-63
2022/12/31 07:45:37;;;;;;;;;;;;;;;;;;4673090;28;20237;-63
2022/12/31 07:48:03;;;;;;;;;;;;;;;;;;4678738;28;20234;-62
2022/12/31 07:50:29;;;;;;;;;;;;;;;;;;4679060;28;20802;-64
2022/12/31 07:52:54;;;;;;;;;;;;;;;;;;4677235;28;20268;-63
2022/12/31 07:55:20;;;;;;;;;;;;;;;;;;4679415;28;20274;-64
2022/12/31 07:57:46;;;;;;;;;;;;;;;;;;4677954;28;20335;-64
2022/12/31 08:00:12;;;;;;;;;;;;;;;;;;4677037;28;20639;-64
2022/12/31 08:02:38;;;;;;;;;;;;;;;;;;4678466;28;20295;-63
2022/12/31 08:05:04;;;;;;;;;;;;;;;;;;4678671;28;20336;-63
2022/12/31 08:07:30;;;;;;;;;;;;;;;;;;4679292;28;20335;-63
2022/12/31 08:09:57;;;;;;;;;;;;;;;;;;4677972;28;20253;-63
2022/12/31 08:12:22;;;;;;;;;;;;;;;;;;4676992;28;20258;-63
2022/12/31 08:14:48;;;;;;;;;;;;;;;;;;4676654;28;20292;-64
2022/12/31 08:17:14;;;;;;;;;;;;;;;;;;4676029;28;20624;-64
2022/12/31 08:19:40;;;;;;;;;;;;;;;;;;4676764;28;20268;-63
2022/12/31 08:22:06;;;;;;;;;;;;;;;;;;4676624;28;20292;-65
2022/12/31 08:24:34;;;;;;;;;;;;;;;;;;4672426;28;20250;-63
2022/12/31 08:27:00;;;;;;;;;;;;;;;;;;4672351;28;20772;-64
2022/12/31 08:29:25;;;;;;;;;;;;;;;;;;4674705;28;20297;-64
2022/12/31 08:31:51;;;;;;;;;;;;;;;;;;4674873;28;20344;-63
2022/12/31 08:34:17;;;;;;;;;;;;;;;;;;4674917;28;20866;-64
2022/12/31 08:36:43;;;;;;;;;;;;;;;;;;4671714;28;20241;-63
2022/12/31 08:39:09;;;;;;;;;;;;;;;;;;4675680;28;20850;-63
2022/12/31 08:41:35;;;;;;;;;;;;;;;;;;4676337;28;20421;-65
2022/12/31 08:44:01;;;;;;;;;;;;;;;;;;4679573;28;20724;-64
2022/12/31 08:46:27;;;;;;;;;;;;;;;;;;4674085;28;20336;-65
2022/12/31 08:48:52;;;;;;;;;;;;;;;;;;4670990;28;20267;-61
2022/12/31 08:51:18;;;;;;;;;;;;;;;;;;4671242;28;20250;-65
2022/12/31 08:53:44;;;;;;;;;;;;;;;;;;4664992;28;20290;-64
2022/12/31 08:56:10;;;;;;;;;;;;;;;;;;4670390;28;20252;-66
2022/12/31 08:58:36;;;;;;;;;;;;;;;;;;4672622;28;20283;-63
2022/12/31 09:01:02;;;;;;;;;;;;;;;;;;4675162;28;20260;-64
2022/12/31 09:03:28;;;;;;;;;;;;;;;;;;4677450;28;20803;-64
2022/12/31 09:05:56;;;;;;;;;;;;;;;;;;4677633;28;20315;-64
2022/12/31 09:08:22;;;;;;;;;;;;;;;;;;4675859;28;20238;-64
2022/12/31 09:10:48;;;;;;;;;;;;;;;;;;4675365;28;20666;-62
2022/12/31 09:13:14;;;;;;;;;;;;;;;;;;4677352;28;20368;-64
2022/12/31 09:15:40;;;;;;;;;;;;;;;;;;4675957;28;20252;-64
2022/12/31 09:18:06;;;;;;;;;;;;;;;;;;4674593;28;20276;-63
2022/12/31 09:20:32;;;;;;;;;;;;;;;;;;4676267;28;20706;-61
2022/12/31 09:22:58;;;;;;;;;;;;;;;;;;4677317;28;20385;-64
2022/12/31 09:25:24;;;;;;;;;;;;;;;;;;4676606;28;20277;-62
2022/12/31 09:27:50;;;;;;;;;;;;;;;;;;4680246;28;20362;-63
2022/12/31 09:30:16;;;;;;;;;;;;;;;;;;4677814;28;20306;-64
2022/12/31 09:32:42;;;;;;;;;;;;;;;;;;4677371;28;20329;-64
2022/12/31 09:35:10;;;;;;;;;;;;;;;;;;4677484;28;20233;-63
2022/12/31 09:37:35;;;;;;;;;;;;;;;;;;4677418;28;20294;-64
2022/12/31 09:40:01;;;;;;;;;;;;;;;;;;4678932;28;20487;-62
2022/12/31 09:42:27;;;;;;;;;;;;;;;;;;4678248;28;21335;-62
2022/12/31 09:44:53;;;;;;;;;;;;;;;;;;4678092;28;20293;-64
2022/12/31 09:47:19;;;;;;;;;;;;;;;;;;4677710;28;20780;-63
2022/12/31 09:49:45;;;;;;;;;;;;;;;;;;4677681;28;20240;-64
2022/12/31 09:52:11;;;;;;;;;;;;;;;;;;4677424;28;20274;-64
2022/12/31 09:54:37;;;;;;;;;;;;;;;;;;4677952;28;20285;-63
2022/12/31 09:57:03;;;;;;;;;;;;;;;;;;4676399;28;20264;-64
2022/12/31 09:59:29;;;;;;;;;;;;;;;;;;4673881;28;20249;-65
2022/12/31 10:01:55;;;;;;;;;;;;;;;;;;4669953;28;21039;-62
2022/12/31 10:04:20;;;;;;;;;;;;;;;;;;4669725;28;20375;-63
2022/12/31 10:06:46;;;;;;;;;;;;;;;;;;4668481;28;20720;-61
2022/12/31 10:09:12;;;;;;;;;;;;;;;;;;4668599;28;20293;-64
2022/12/31 10:11:38;;;;;;;;;;;;;;;;;;4666817;28;21052;-63
2022/12/31 10:14:04;;;;;;;;;;;;;;;;;;4678651;28;20300;-64
2022/12/31 10:16:30;;;;;;;;;;;;;;;;;;4668051;28;20322;-61
2022/12/31 10:18:56;;;;;;;;;;;;;;;;;;4669148;28;20229;-64
2022/12/31 10:21:22;;;;;;;;;;;;;;;;;;4670208;28;20225;-63
2022/12/31 10:23:47;;;;;;;;;;;;;;;;;;4672374;28;20242;-61
2022/12/31 10:26:13;;;;;;;;;;;;;;;;;;4669737;28;20273;-63
2022/12/31 10:28:39;;;;;;;;;;;;;;;;;;4669947;28;20400;-63
2022/12/31 10:31:05;;;;;;;;;;;;;;;;;;4672368;28;20289;-63
2022/12/31 10:33:31;;;;;;;;;;;;;;;;;;4670766;28;20250;-63
2022/12/31 10:35:57;;;;;;;;;;;;;;;;;;4670735;28;20291;-63
2022/12/31 10:38:23;;;;;;;;;;;;;;;;;;4673703;28;20278;-64
2022/12/31 10:40:49;;;;;;;;;;;;;;;;;;4675114;28;20251;-63
2022/12/31 10:43:15;;;;;;;;;;;;;;;;;;4671511;28;20323;-63
2022/12/31 10:45:40;;;;;;;;;;;;;;;;;;4673806;28;20276;-64
2022/12/31 10:48:06;;;;;;;;;;;;;;;;;;4674252;28;20754;-63
2022/12/31 10:50:32;;;;;;;;;;;;;;;;;;4672736;28;20288;-63
2022/12/31 10:52:58;;;;;;;;;;;;;;;;;;4672625;28;20330;-63
2022/12/31 10:55:24;;;;;;;;;;;;;;;;;;4671464;28;20239;-63
2022/12/31 10:57:50;;;;;;;;;;;;;;;;;;4671429;28;20246;-62
2022/12/31 11:00:16;;;;;;;;;;;;;;;;;;4667929;28;20286;-63
2022/12/31 11:02:42;;;;;;;;;;;;;;;;;;4671797;28;20375;-64
2022/12/31 11:05:08;;;;;;;;;;;;;;;;;;4671660;28;20374;-64
2022/12/31 11:07:33;;;;;;;;;;;;;;;;;;4673403;28;20303;-64
2022/12/31 11:09:59;;;;;;;;;;;;;;;;;;4671460;28;20248;-63
2022/12/31 11:12:25;;;;;;;;;;;;;;;;;;4669685;28;20335;-64
2022/12/31 11:14:51;;;;;;;;;;;;;;;;;;4670967;28;20314;-64
2022/12/31 11:17:17;;;;;;;;;;;;;;;;;;4668720;28;20291;-62
2022/12/31 11:19:43;;;;;;;;;;;;;;;;;;4669369;28;20535;-61
2022/12/31 11:22:09;;;;;;;;;;;;;;;;;;4666183;28;20278;-63
2022/12/31 11:24:36;;;;;;;;;;;;;;;;;;4673657;28;20287;-64
2022/12/31 11:27:02;;;;;;;;;;;;;;;;;;4667927;28;20257;-63
2022/12/31 11:29:28;;;;;;;;;;;;;;;;;;4673096;28;20713;-62
2022/12/31 11:31:56;;;;;;;;;;;;;;;;;;4670478;28;20252;-64
2022/12/31 11:34:22;;;;;;;;;;;;;;;;;;4673010;28;20273;-62
2022/12/31 11:36:48;;;;;;;;;;;;;;;;;;4674901;28;20250;-64
2022/12/31 11:39:14;;;;;;;;;;;;;;;;;;4675005;28;20602;-63
2022/12/31 11:41:40;;;;;;;;;;;;;;;;;;4676709;28;20389;-64
2022/12/31 11:44:06;;;;;;;;;;;;;;;;;;4677635;28;20680;-65
2022/12/31 11:46:32;;;;;;;;;;;;;;;;;;4679427;28;20242;-63
2022/12/31 11:48:57;;;;;;;;;;;;;;;;;;4678105;28;20794;-64
2022/12/31 11:51:23;;;;;;;;;;;;;;;;;;4678054;28;20306;-63
2022/12/31 11:53:49;;;;;;;;;;;;;;;;;;4674778;28;20790;-64
2022/12/31 11:56:15;;;;;;;;;;;;;;;;;;4676151;28;20245;-64
2022/12/31 11:58:41;;;;;;;;;;;;;;;;;;4672427;28;20735;-63
2022/12/31 12:01:07;;;;;;;;;;;;;;;;;;4670582;28;20333;-63
2022/12/31 12:03:37;;;;;;;;;;;;;;;;;;4668298;28;20290;-64
2022/12/31 12:06:03;;;;;;;;;;;;;;;;;;4671259;28;20326;-62
2022/12/31 12:08:29;;;;;;;;;;;;;;;;;;4675878;28;20297;-63
2022/12/31 12:10:55;;;;;;;;;;;;;;;;;;4673482;28;20390;-64
2022/12/31 12:13:21;;;;;;;;;;;;;;;;;;4669713;28;20796;-62
2022/12/31 12:15:47;;;;;;;;;;;;;;;;;;4674835;28;20323;-63
2022/12/31 12:18:13;;;;;;;;;;;;;;;;;;4673801;28;20312;-64
2022/12/31 12:20:38;;;;;;;;;;;;;;;;;;4676635;28;20282;-64
2022/12/31 12:23:04;;;;;;;;;;;;;;;;;;4675850;28;20270;-64
2022/12/31 12:25:30;;;;;;;;;;;;;;;;;;4675683;28;20280;-64
2022/12/31 12:27:56;;;;;;;;;;;;;;;;;;4677639;28;20380;-65
2022/12/31 12:30:22;;;;;;;;;;;;;;;;;;4677199;28;20298;-62
2022/12/31 12:32:48;;;;;;;;;;;;;;;;;;4677386;28;20249;-63
2022/12/31 12:35:14;;;;;;;;;;;;;;;;;;4674705;28;20327;-64
2022/12/31 12:37:40;;;;;;;;;;;;;;;;;;4675389;28;20624;-64
2022/12/31 12:40:08;;;;;;;;;;;;;;;;;;4672082;28;20302;-64
2022/12/31 12:42:34;;;;;;;;;;;;;;;;;;4676785;28;20243;-64
2022/12/31 12:45:00;;;;;;;;;;;;;;;;;;4676579;28;20360;-64
2022/12/31 12:47:25;;;;;;;;;;;;;;;;;;4675622;28;20281;-64
2022/12/31 12:49:55;;;;;;;;;;;;;;;;;;4675679;28;20294;-64
2022/12/31 12:52:20;;;;;;;;;;;;;;;;;;4673277;28;20498;-65
2022/12/31 12:54:46;;;;;;;;;;;;;;;;;;4675958;28;20810;-64
2022/12/31 12:57:12;;;;;;;;;;;;;;;;;;4686080;28;20302;-64
2022/12/31 12:59:38;;;;;;;;;;;;;;;;;;4674868;28;20229;-64
2022/12/31 13:02:04;;;;;;;;;;;;;;;;;;4674920;28;20372;-62
2022/12/31 13:04:30;;;;;;;;;;;;;;;;;;4675838;28;20409;-64
2022/12/31 13:06:56;;;;;;;;;;;;;;;;;;4676449;28;20775;-64
2022/12/31 13:09:22;;;;;;;;;;;;;;;;;;4675415;28;20276;-64
2022/12/31 13:11:48;;;;;;;;;;;;;;;;;;4673434;28;20299;-64
2022/12/31 13:14:13;;;;;;;;;;;;;;;;;;4677272;28;20770;-64
2022/12/31 13:16:39;;;;;;;;;;;;;;;;;;4676950;28;20280;-61
2022/12/31 13:19:05;;;;;;;;;;;;;;;;;;4675459;28;20709;-64
2022/12/31 13:21:31;;;;;;;;;;;;;;;;;;4672415;28;20279;-63
2022/12/31 13:23:57;;;;;;;;;;;;;;;;;;4676452;28;20263;-64
2022/12/31 13:26:23;;;;;;;;;;;;;;;;;;4674235;28;20782;-64
2022/12/31 13:28:49;;;;;;;;;;;;;;;;;;4676234;28;20238;-64
2022/12/31 13:31:15;;;;;;;;;;;;;;;;;;4675240;28;20261;-64
2022/12/31 13:33:41;;;;;;;;;;;;;;;;;;4676488;28;20294;-63
2022/12/31 13:36:06;;;;;;;;;;;;;;;;;;4676877;28;20260;-63
2022/12/31 13:38:32;;;;;;;;;;;;;;;;;;4673874;28;20791;-64
2022/12/31 13:40:58;;;;;;;;;;;;;;;;;;4675755;28;20240;-63
2022/12/31 13:43:24;;;;;;;;;;;;;;;;;;4677275;28;20243;-63
2022/12/31 13:45:50;;;;;;;;;;;;;;;;;;4673891;28;20267;-62
2022/12/31 13:48:16;;;;;;;;;;;;;;;;;;4676389;28;20442;-64
2022/12/31 13:50:42;;;;;;;;;;;;;;;;;;4676203;28;20247;-63
2022/12/31 13:53:08;;;;;;;;;;;;;;;;;;4675728;28;20299;-63
2022/12/31 13:55:33;;;;;;;;;;;;;;;;;;4675384;28;20259;-64
2022/12/31 13:57:59;;;;;;;;;;;;;;;;;;4675786;28;20237;-64
2022/12/31 14:00:25;;;;;;;;;;;;;;;;;;4674231;28;20285;-62
2022/12/31 14:02:51;;;;;;;;;;;;;;;;;;4674939;28;20820;-63
2022/12/31 14:05:17;;;;;;;;;;;;;;;;;;4674938;28;20252;-62
2022/12/31 14:07:43;;;;;;;;;;;;;;;;;;4676640;28;20294;-63
2022/12/31 14:10:09;;;;;;;;;;;;;;;;;;4673645;28;20233;-64
2022/12/31 14:12:35;;;;;;;;;;;;;;;;;;4669824;28;20335;-64
2022/12/31 14:15:01;;;;;;;;;;;;;;;;;;4668899;28;20255;-63
2022/12/31 14:17:26;;;;;;;;;;;;;;;;;;4673819;28;20237;-62
2022/12/31 14:19:54;;;;;;;;;;;;;;;;;;4676160;28;20278;-62
2022/12/31 14:22:20;;;;;;;;;;;;;;;;;;4675867;28;20302;-63
2022/12/31 14:24:46;;;;;;;;;;;;;;;;;;4674763;28;20242;-63
2022/12/31 14:27:12;;;;;;;;;;;;;;;;;;4675031;28;20312;-63
2022/12/31 14:29:38;;;;;;;;;;;;;;;;;;4675114;28;20336;-63
2022/12/31 14:32:04;;;;;;;;;;;;;;;;;;4675740;28;20277;-63
2022/12/31 14:34:30;;;;;;;;;;;;;;;;;;4676164;28;20615;-61
2022/12/31 14:36:55;;;;;;;;;;;;;;;;;;4677587;28;20264;-62
2022/12/31 14:39:21;;;;;;;;;;;;;;;;;;4680112;28;20619;-62
2022/12/31 14:41:47;;;;;;;;;;;;;;;;;;4678578;28;20237;-64
2022/12/31 14:44:13;;;;;;;;;;;;;;;;;;4679262;28;20274;-63
2022/12/31 14:46:39;;;;;;;;;;;;;;;;;;4681102;28;20873;-62
2022/12/31 14:49:05;;;;;;;;;;;;;;;;;;4681302;28;20239;-64
2022/12/31 14:51:31;;;;;;;;;;;;;;;;;;4680199;28;20255;-64
2022/12/31 14:53:57;;;;;;;;;;;;;;;;;;4679730;28;20714;-65
2022/12/31 14:56:23;;;;;;;;;;;;;;;;;;4678491;28;20670;-64
2022/12/31 14:58:49;;;;;;;;;;;;;;;;;;4680367;28;20703;-65
2022/12/31 15:01:16;;;;;;;;;;;;;;;;;;4681186;28;20246;-65
2022/12/31 15:03:42;;;;;;;;;;;;;;;;;;4679664;28;20698;-63
2022/12/31 15:06:08;;;;;;;;;;;;;;;;;;4678994;28;20885;-63
2022/12/31 15:08:34;;;;;;;;;;;;;;;;;;4679166;28;20279;-64
2022/12/31 15:10:59;;;;;;;;;;;;;;;;;;4680465;28;20264;-64
2022/12/31 15:13:25;;;;;;;;;;;;;;;;;;4683184;28;20307;-64
2022/12/31 15:15:51;;;;;;;;;;;;;;;;;;4680788;28;20326;-63
2022/12/31 15:18:17;;;;;;;;;;;;;;;;;;4682197;28;20820;-63
2022/12/31 15:20:45;;;;;;;;;;;;;;;;;;4679750;28;20510;-64
2022/12/31 15:23:11;;;;;;;;;;;;;;;;;;4680069;28;20237;-62
2022/12/31 15:25:37;;;;;;;;;;;;;;;;;;4680121;28;20277;-63
2022/12/31 15:28:03;;;;;;;;;;;;;;;;;;4682703;28;20321;-63
2022/12/31 15:30:29;;;;;;;;;;;;;;;;;;4682003;28;20316;-63
2022/12/31 15:32:55;;;;;;;;;;;;;;;;;;4681254;28;20331;-63
2022/12/31 15:35:21;;;;;;;;;;;;;;;;;;4681872;28;20449;-63
2022/12/31 15:37:47;;;;;;;;;;;;;;;;;;4681718;28;20265;-64
2022/12/31 15:40:13;;;;;;;;;;;;;;;;;;4681025;28;20308;-63
2022/12/31 15:42:39;;;;;;;;;;;;;;;;;;4681363;28;20271;-63
2022/12/31 15:45:05;;;;;;;;;;;;;;;;;;4679769;28;20728;-63
2022/12/31 15:47:31;;;;;;;;;;;;;;;;;;4676132;28;20290;-62
2022/12/31 15:49:57;;;;;;;;;;;;;;;;;;4676574;28;20277;-63
2022/12/31 15:52:23;;;;;;;;;;;;;;;;;;4676801;28;20244;-64
2022/12/31 15:54:49;;;;;;;;;;;;;;;;;;4671490;28;20323;-64
2022/12/31 15:57:15;;;;;;;;;;;;;;;;;;4674193;28;20235;-62
2022/12/31 15:59:41;;;;;;;;;;;;;;;;;;4677329;28;20748;-63
2022/12/31 16:02:06;;;;;;;;;;;;;;;;;;4676176;28;20398;-64
2022/12/31 16:04:33;;;;;;;;;;;;;;;;;;4677854;28;20832;-64
2022/12/31 16:06:59;;;;;;;;;;;;;;;;;;4675972;28;20274;-64
2022/12/31 16:09:25;;;;;;;;;;;;;;;;;;4677344;28;20268;-65
2022/12/31 16:11:51;;;;;;;;;;;;;;;;;;4673465;28;20300;-63
2022/12/31 16:14:17;;;;;;;;;;;;;;;;;;4671792;28;20314;-64
2022/12/31 16:16:43;;;;;;;;;;;;;;;;;;4673344;28;20234;-64
2022/12/31 16:19:09;;;;;;;;;;;;;;;;;;4672463;28;20341;-63
2022/12/31 16:21:35;;;;;;;;;;;;;;;;;;4673231;28;20249;-64
2022/12/31 16:24:01;;;;;;;;;;;;;;;;;;4671547;28;20301;-64
2022/12/31 16:26:26;;;;;;;;;;;;;;;;;;4671787;28;20403;-64
2022/12/31 16:28:54;;;;;;;;;;;;;;;;;;4677662;28;20237;-62
2022/12/31 16:31:19;;;;;;;;;;;;;;;;;;4672376;28;20241;-64
2022/12/31 16:33:45;;;;;;;;;;;;;;;;;;4668909;28;20347;-64
2022/12/31 16:36:11;;;;;;;;;;;;;;;;;;4669684;28;20237;-63
2022/12/31 16:38:39;;;;;;;;;;;;;;;;;;4672093;28;20672;-64
2022/12/31 16:41:05;;;;;;;;;;;;;;;;;;4670890;28;20796;-64
2022/12/31 16:43:31;;;;;;;;;;;;;;;;;;4669603;28;20331;-64
2022/12/31 16:45:57;;;;;;;;;;;;;;;;;;4670373;28;20327;-64
2022/12/31 16:48:23;;;;;;;;;;;;;;;;;;4669346;28;20299;-62
2022/12/31 16:50:49;;;;;;;;;;;;;;;;;;4670188;28;20246;-63
2022/12/31 16:53:16;;;;;;;;;;;;;;;;;;4671236;28;20288;-64
2022/12/31 16:55:42;;;;;;;;;;;;;;;;;;4676761;28;20234;-65